Time;durP1;ratioP1;P1;durP2;ratioP2;P2;SDS_P1;SDS_P2;PMS_P1;PMS_P2;Temp;Humidity;BMP_temperature;BMP_pressure;BME280_temperature;BME280_humidity;BME280_pressure;Samples;Min_cycle;Max_cycle;Signal;HPM_P1;HPM_P2
2022/01/01 00:00:34;;;;;;;23.45;10.77;;;;;;;12.82;100.00;101854.72;10391442;28;20050;-63
2022/01/01 00:05:56;;;;;;;27.98;9.90;;;;;;;12.79;100.00;101865.38;10406606;28;20054;-66
2022/01/01 00:11:18;;;;;;;33.45;10.65;;;;;;;12.83;100.00;101872.09;10410267;28;20489;-65
2022/01/01 00:16:45;;;;;;;23.02;9.55;;;;;;;12.80;100.00;101879.28;10395562;28;20053;-65
2022/01/01 00:22:07;;;;;;;24.75;9.77;;;;;;;12.82;100.00;101880.06;10398065;28;20053;-63
2022/01/01 00:27:29;;;;;;;24.73;9.48;;;;;;;12.79;100.00;101896.78;10363789;28;20065;-63
2022/01/01 00:32:50;;;;;;;28.98;9.38;;;;;;;12.85;100.00;101891.19;10356763;28;20509;-64
2022/01/01 00:38:12;;;;;;;27.85;9.25;;;;;;;12.80;100.00;101893.25;10356207;28;20493;-63
2022/01/01 00:43:34;;;;;;;26.80;9.45;;;;;;;12.76;100.00;101896.94;10355339;28;20131;-65
2022/01/01 00:48:56;;;;;;;23.58;8.85;;;;;;;12.78;100.00;101879.41;10357819;28;20049;-63
2022/01/01 00:54:20;;;;;;;29.88;9.05;;;;;;;12.74;100.00;101877.88;10400895;28;20457;-63
2022/01/01 00:59:42;;;;;;;27.55;8.82;;;;;;;12.77;100.00;101884.69;10384956;28;20048;-65
2022/01/01 01:05:04;;;;;;;25.70;9.73;;;;;;;12.75;100.00;101883.94;10427825;28;20060;-65
2022/01/01 01:10:25;;;;;;;30.38;10.25;;;;;;;12.76;100.00;101899.56;10432724;28;20051;-63
2022/01/01 01:15:47;;;;;;;26.83;9.55;;;;;;;12.77;100.00;101909.09;10359103;28;20368;-63
2022/01/01 01:21:09;;;;;;;27.33;9.77;;;;;;;12.76;100.00;101912.66;10424364;28;20052;-63
2022/01/01 01:26:31;;;;;;;32.30;10.73;;;;;;;12.71;100.00;101914.66;10385384;28;20064;-63
2022/01/01 01:31:53;;;;;;;31.40;10.75;;;;;;;12.70;100.00;101927.84;10437096;28;20053;-63
2022/01/01 01:37:14;;;;;;;30.35;11.57;;;;;;;12.67;100.00;101928.00;10392155;28;20055;-63
2022/01/01 01:42:37;;;;;;;34.17;12.70;;;;;;;12.65;100.00;101930.72;10380852;28;20119;-63
2022/01/01 01:47:59;;;;;;;26.55;12.23;;;;;;;12.64;100.00;101936.88;10411982;28;20049;-63
2022/01/01 01:53:20;;;;;;;27.58;11.45;;;;;;;12.64;100.00;101941.25;10431623;28;20041;-63
2022/01/01 01:58:42;;;;;;;30.08;11.95;;;;;;;12.59;100.00;101936.28;10373935;28;20039;-64
2022/01/01 02:04:04;;;;;;;28.52;11.70;;;;;;;12.60;100.00;101956.28;10374389;28;20061;-63
2022/01/01 02:09:25;;;;;;;30.70;11.73;;;;;;;12.62;100.00;101966.66;10381441;28;20057;-63
2022/01/01 02:20:21;;;;;;;31.63;11.65;;;;;;;12.58;100.00;101949.47;10361602;28;20045;-63
2022/01/01 02:25:45;;;;;;;;;;;;;;;12.55;100.00;101947.00;10375084;28;20763;-64
2022/01/01 02:31:06;;;;;;;36.33;11.63;;;;;;;12.56;100.00;101957.38;10393248;28;19921;-63
2022/01/01 02:36:37;;;;;;;28.73;11.23;;;;;;;12.57;100.00;101959.06;10392416;28;20053;-63
2022/01/01 02:41:59;;;;;;;31.88;11.55;;;;;;;12.52;100.00;101955.84;10386584;28;20046;-64
2022/01/01 02:47:21;;;;;;;36.13;12.40;;;;;;;12.53;100.00;101957.53;10411212;28;20049;-63
2022/01/01 02:52:43;;;;;;;32.53;11.80;;;;;;;12.50;100.00;101960.34;10380686;28;20382;-63
2022/01/01 02:58:04;;;;;;;33.92;11.30;;;;;;;12.52;100.00;101974.16;10374078;28;20054;-63
2022/01/01 03:03:26;;;;;;;37.00;11.43;;;;;;;12.49;100.00;101987.41;10370107;28;20386;-64
2022/01/01 03:08:50;;;;;;;32.78;11.68;;;;;;;12.51;100.00;101990.81;10401593;28;20073;-63
2022/01/01 03:14:17;;;;;;;35.47;11.40;;;;;;;12.49;100.00;102003.13;10437311;28;20059;-64
2022/01/01 03:19:38;;;;;;;35.25;11.82;;;;;;;12.50;100.00;102004.81;10408574;28;20060;-63
2022/01/01 03:25:00;;;;;;;38.40;12.15;;;;;;;12.51;100.00;102011.72;10407210;28;20060;-63
2022/01/01 03:30:22;;;;;;;39.63;12.45;;;;;;;12.49;100.00;101987.41;10383552;28;20049;-63
2022/01/01 03:35:44;;;;;;;39.33;12.73;;;;;;;12.48;100.00;101989.28;10360387;28;20050;-62
2022/01/01 03:41:06;;;;;;;35.35;13.00;;;;;;;12.46;100.00;101998.97;10421816;28;20486;-64
2022/01/01 03:46:27;;;;;;;35.92;13.40;;;;;;;12.47;100.00;101992.81;10414377;28;20060;-63
2022/01/01 03:51:49;;;;;;;47.00;15.27;;;;;;;12.48;100.00;102001.41;10419914;28;20084;-65
2022/01/01 03:57:11;;;;;;;43.67;15.70;;;;;;;12.45;100.00;101994.66;10425232;28;20049;-63
2022/01/01 04:02:32;;;;;;;42.70;14.75;;;;;;;12.37;100.00;101994.25;10439843;28;20626;-63
2022/01/01 04:07:54;;;;;;;43.38;15.30;;;;;;;12.40;100.00;102007.13;10432415;28;20049;-63
2022/01/01 04:13:16;;;;;;;32.25;16.08;;;;;;;12.37;100.00;102018.59;10424431;28;20474;-64
2022/01/01 04:18:38;;;;;;;50.28;17.05;;;;;;;12.32;100.00;102025.00;10358487;28;20278;-63
2022/01/01 04:24:02;;;;;;;48.50;19.38;;;;;;;12.32;100.00;102025.84;10382311;28;20184;-64
2022/01/01 04:29:24;;;;;;;50.72;18.75;;;;;;;12.34;100.00;102028.38;10428411;28;20050;-63
2022/01/01 04:34:45;;;;;;;49.08;18.42;;;;;;;12.33;100.00;102016.22;10357697;28;20745;-63
2022/01/01 04:40:08;;;;;;;55.47;19.23;;;;;;;12.29;100.00;102009.47;10356693;28;20046;-63
2022/01/01 04:45:30;;;;;;;56.45;23.75;;;;;;;12.31;100.00;102008.44;10371422;28;20059;-63
2022/01/01 04:50:52;;;;;;;61.63;23.95;;;;;;;12.33;100.00;102021.47;10361069;28;20111;-63
2022/01/01 04:56:18;;;;;;;66.95;25.90;;;;;;;12.30;100.00;102027.69;10390332;28;20052;-63
2022/01/01 05:01:41;;;;;;;66.68;25.95;;;;;;;12.32;100.00;102038.06;10438621;28;20056;-63
2022/01/01 05:07:04;;;;;;;58.28;25.42;;;;;;;12.33;100.00;102026.69;10409535;28;20057;-63
2022/01/01 05:12:25;;;;;;;71.28;27.63;;;;;;;12.34;100.00;102033.63;10414569;28;20057;-63
2022/01/01 05:17:47;;;;;;;68.47;26.55;;;;;;;12.32;100.00;102030.22;10356038;28;20053;-63
2022/01/01 05:23:09;;;;;;;69.03;26.85;;;;;;;12.36;100.00;102031.78;10355085;28;20065;-63
2022/01/01 05:28:31;;;;;;;73.47;29.27;;;;;;;12.35;100.00;102025.69;10422854;28;20057;-63
2022/01/01 05:33:53;;;;;;;77.22;29.52;;;;;;;12.35;100.00;102030.06;10355105;28;20042;-64
2022/01/01 05:39:15;;;;;;;79.50;30.40;;;;;;;12.33;100.00;102037.16;10366996;28;20049;-64
2022/01/01 05:44:36;;;;;;;71.30;31.20;;;;;;;12.29;100.00;102033.00;10397411;28;20053;-63
2022/01/01 05:49:58;;;;;;;75.15;32.08;;;;;;;12.33;100.00;102037.16;10415262;28;20045;-63
2022/01/01 05:55:20;;;;;;;79.18;33.47;;;;;;;12.30;100.00;102026.84;10397611;28;20072;-63
2022/01/01 06:00:42;;;;;;;81.22;34.45;;;;;;;12.25;100.00;102034.06;10397330;28;20037;-64
2022/01/01 06:06:04;;;;;;;83.25;36.17;;;;;;;12.32;100.00;102046.75;10395239;28;20406;-63
2022/01/01 06:11:45;;;;;;;90.40;38.08;;;;;;;12.26;100.00;102056.69;10387999;28;20049;-65
2022/01/01 06:17:07;;;;;;;90.88;38.28;;;;;;;12.33;100.00;102058.91;10395191;28;20470;-63
2022/01/01 06:22:29;;;;;;;90.78;38.22;;;;;;;12.28;100.00;102057.44;10366331;28;20058;-63
2022/01/01 06:27:50;;;;;;;92.35;40.03;;;;;;;12.33;100.00;102058.91;10406399;28;20046;-64
2022/01/01 06:33:16;;;;;;;95.32;39.55;;;;;;;12.33;100.00;102068.53;10361194;28;20073;-63
2022/01/01 06:38:42;;;;;;;86.30;39.42;;;;;;;12.31;100.00;102063.34;10361575;28;20049;-63
2022/01/01 06:44:04;;;;;;;102.03;39.70;;;;;;;12.30;100.00;102060.84;10373805;28;20065;-63
2022/01/01 06:49:25;;;;;;;92.20;39.00;;;;;;;12.29;100.00;102061.75;10398251;28;20398;-63
2022/01/01 06:54:47;;;;;;;83.05;37.88;;;;;;;12.34;100.00;102054.53;10408552;28;20054;-64
2022/01/01 07:00:12;;;;;;;86.65;38.08;;;;;;;12.34;100.00;102062.38;10434814;28;20044;-64
2022/01/01 07:05:34;;;;;;;85.57;38.90;;;;;;;12.30;100.00;102069.50;10385767;28;20084;-64
2022/01/01 07:10:55;;;;;;;84.15;38.22;;;;;;;12.34;100.00;102080.69;10381709;28;20417;-64
2022/01/01 07:16:17;;;;;;;89.32;37.28;;;;;;;12.32;100.00;102088.59;10359125;28;20053;-64
2022/01/01 07:21:39;;;;;;;82.53;36.70;;;;;;;12.38;100.00;102090.03;10359282;28;20053;-63
2022/01/01 07:27:01;;;;;;;85.97;37.03;;;;;;;12.37;100.00;102093.59;10401267;28;20139;-63
2022/01/01 07:32:24;;;;;;;77.70;35.42;;;;;;;12.38;100.00;102103.09;10394004;28;20049;-63
2022/01/01 07:37:46;;;;;;;83.90;35.38;;;;;;;12.33;100.00;102115.59;10358255;28;20050;-63
2022/01/01 07:43:12;;;;;;;72.40;34.28;;;;;;;12.38;100.00;102135.34;10358063;28;20048;-63
2022/01/01 07:48:33;;;;;;;74.18;33.92;;;;;;;12.39;100.00;102121.34;10372560;28;20046;-63
2022/01/01 07:53:55;;;;;;;77.65;31.88;;;;;;;12.41;100.00;102129.97;10389680;28;20045;-64
2022/01/01 07:59:17;;;;;;;71.20;31.10;;;;;;;12.36;100.00;102131.97;10417987;28;20061;-65
2022/01/01 08:04:38;;;;;;;70.13;29.52;;;;;;;12.36;100.00;102139.81;10421605;28;20080;-62
2022/01/01 08:10:00;;;;;;;65.38;28.40;;;;;;;12.37;100.00;102128.44;10415084;28;20053;-67
2022/01/01 08:15:23;;;;;;;69.50;28.45;;;;;;;12.35;100.00;102132.06;10407614;28;20422;-63
2022/01/01 08:20:45;;;;;;;57.30;25.15;;;;;;;12.35;100.00;102118.97;10383625;28;20041;-63
2022/01/01 08:26:07;;;;;;;53.22;23.48;;;;;;;12.31;100.00;102118.28;10384961;28;20091;-64
2022/01/01 08:31:28;;;;;;;58.63;24.73;;;;;;;12.35;100.00;102119.81;10381747;28;20048;-63
2022/01/01 08:36:50;;;;;;;56.13;24.20;;;;;;;12.35;100.00;102118.97;10394443;28;20413;-64
2022/01/01 08:42:12;;;;;;;54.20;24.45;;;;;;;12.37;100.00;102101.44;10356117;28;20050;-65
2022/01/01 08:47:34;;;;;;;51.60;22.73;;;;;;;12.31;100.00;102106.97;10379209;28;20049;-64
2022/01/01 08:52:57;;;;;;;51.88;21.88;;;;;;;12.36;100.00;102097.16;10372344;28;20056;-66
2022/01/01 08:58:19;;;;;;;48.40;21.52;;;;;;;12.37;100.00;102104.06;10438327;28;20264;-65
2022/01/01 09:03:50;;;;;;;50.65;21.63;;;;;;;12.41;100.00;102100.34;10392962;28;20073;-63
2022/01/01 09:09:12;;;;;;;48.67;21.33;;;;;;;12.43;100.00;102127.25;10394603;28;20060;-63
2022/01/01 09:14:34;;;;;;;54.45;21.67;;;;;;;12.43;100.00;102133.38;10354917;28;20057;-63
2022/01/01 09:19:55;;;;;;;51.97;19.98;;;;;;;12.45;100.00;102141.13;10367033;28;20057;-65
2022/01/01 09:25:18;;;;;;;46.33;19.75;;;;;;;12.44;100.00;102144.66;10362781;28;20567;-63
2022/01/01 09:30:40;;;;;;;47.42;19.58;;;;;;;12.49;100.00;102146.97;10378212;28;20050;-66
2022/01/01 09:36:04;;;;;;;40.53;19.05;;;;;;;12.46;100.00;102148.88;10368524;28;20505;-65
2022/01/01 09:41:26;;;;;;;43.50;18.38;;;;;;;12.52;100.00;102141.56;10359508;28;20049;-65
2022/01/01 09:46:50;;;;;;;42.40;18.45;;;;;;;12.54;100.00;102151.97;10397342;28;20045;-65
2022/01/01 09:52:14;;;;;;;44.90;17.45;;;;;;;12.59;100.00;102144.69;10391078;28;20052;-63
2022/01/01 09:57:37;;;;;;;46.65;18.85;;;;;;;12.62;100.00;102150.63;10409815;28;20445;-63
2022/01/01 10:02:58;;;;;;;54.63;19.02;;;;;;;12.67;100.00;102153.84;10391628;28;20041;-63
2022/01/01 10:08:24;;;;;;;51.58;18.27;;;;;;;12.66;100.00;102157.38;10384776;28;20058;-62
2022/01/01 10:13:46;;;;;;;45.20;18.40;;;;;;;12.70;100.00;102158.91;10431351;28;20053;-63
2022/01/01 10:19:08;;;;;;;57.55;18.90;;;;;;;12.72;100.00;102157.06;10393936;28;20446;-63
2022/01/01 10:27:42;;;;;;;42.83;17.55;;;;;;;12.76;100.00;102148.16;10401352;28;20050;-64
2022/01/01 10:30:22;;;;;;;45.05;18.48;;;;;;;12.86;100.00;102149.34;10361910;28;20553;-63
2022/01/01 10:35:49;;;;;;;50.35;20.05;;;;;;;12.82;100.00;102137.34;10372145;28;20060;-65
2022/01/01 10:41:15;;;;;;;54.75;20.55;;;;;;;12.86;100.00;102132.81;10392552;28;20049;-63
2022/01/01 10:46:38;;;;;;;52.20;20.60;;;;;;;12.84;100.00;102134.66;10376470;28;20700;-63
2022/01/01 10:52:15;;;;;;;47.83;20.33;;;;;;;12.82;100.00;102119.03;10379792;28;20292;-63
2022/01/01 10:57:38;;;;;;;51.95;21.13;;;;;;;12.88;100.00;102105.63;10374079;28;20058;-63
2022/01/01 11:02:59;;;;;;;55.42;21.30;;;;;;;12.88;100.00;102102.16;10364936;28;20050;-64
2022/01/01 11:08:21;;;;;;;51.30;22.77;;;;;;;12.89;100.00;102081.16;10394471;28;20061;-63
2022/01/01 11:13:45;;;;;;;50.15;22.15;;;;;;;12.97;100.00;102078.97;10374459;28;20176;-62
2022/01/01 11:19:08;;;;;;;48.33;21.02;;;;;;;13.10;100.00;102077.38;10359227;28;20623;-63
2022/01/01 11:24:31;;;;;;;48.20;21.00;;;;;;;13.11;100.00;102084.28;10359626;28;20054;-63
2022/01/01 11:29:55;;;;;;;43.17;22.42;;;;;;;13.18;100.00;102080.44;10421167;28;20061;-63
2022/01/01 11:35:22;;;;;;;39.28;21.60;;;;;;;13.23;100.00;102073.16;10394954;28;20656;-63
2022/01/01 11:40:47;;;;;;;43.75;21.20;;;;;;;13.22;100.00;102062.75;10371296;28;20384;-63
2022/01/01 11:46:26;;;;;;;38.80;19.73;;;;;;;13.34;100.00;102049.84;10371170;28;20050;-62
2022/01/01 11:51:52;;;;;;;38.00;17.92;;;;;;;13.41;100.00;102048.53;10369561;28;20763;-63
2022/01/01 11:57:16;;;;;;;31.30;14.88;;;;;;;13.45;100.00;102050.06;10424422;28;20080;-63
2022/01/01 12:02:43;;;;;;;33.80;14.90;;;;;;;13.49;100.00;102051.59;10439884;28;20044;-63
2022/01/01 12:08:05;;;;;;;32.78;13.15;;;;;;;13.53;100.00;102051.31;10371806;28;20482;-63
2022/01/01 12:13:35;;;;;;;25.50;12.10;;;;;;;13.65;100.00;102062.88;10429323;28;20049;-64
2022/01/01 12:19:03;;;;;;;28.42;10.85;;;;;;;13.60;100.00;102052.66;10405031;28;20057;-64
2022/01/01 12:24:26;;;;;;;25.50;10.00;;;;;;;13.67;100.00;102034.81;10381641;28;20042;-65
2022/01/01 12:30:03;;;;;;;28.55;10.00;;;;;;;13.69;100.00;102033.78;10388990;28;20710;-63
2022/01/01 12:35:49;;;;;;;24.38;8.70;;;;;;;13.71;100.00;102017.97;10389642;28;20049;-64
2022/01/01 12:41:19;;;;;;;26.45;8.52;;;;;;;13.73;100.00;102026.56;10379544;28;20061;-63
2022/01/01 12:46:47;;;;;;;14.82;7.28;;;;;;;13.62;100.00;102001.00;10393302;28;20518;-64
2022/01/01 12:52:13;;;;;;;18.92;7.20;;;;;;;13.71;100.00;102004.84;10388437;28;20132;-64
2022/01/01 12:57:34;;;;;;;19.20;6.43;;;;;;;13.75;100.00;102006.38;10397245;28;20060;-64
2022/01/01 13:02:57;;;;;;;23.33;7.03;;;;;;;13.75;100.00;101999.34;10354984;28;20760;-63
2022/01/01 13:08:20;;;;;;;18.83;7.10;;;;;;;13.77;100.00;102009.75;10355212;28;20550;-65
2022/01/01 13:13:43;;;;;;;16.08;6.78;;;;;;;13.75;100.00;102001.97;10424065;28;20048;-63
2022/01/01 13:19:05;;;;;;;14.80;6.13;;;;;;;13.75;100.00;101982.78;10355872;28;20734;-63
2022/01/01 13:24:30;;;;;;;24.58;6.05;;;;;;;13.58;100.00;101983.78;10354830;28;20054;-65
2022/01/01 13:29:52;;;;;;;18.70;5.97;;;;;;;13.69;100.00;101975.28;10437568;28;20103;-64
2022/01/01 13:35:24;;;;;;;20.40;7.00;;;;;;;13.70;100.00;101987.44;10369203;28;20359;-64
2022/01/01 13:40:54;;;;;;;14.05;5.78;;;;;;;13.73;100.00;101992.50;10363170;28;20057;-64
2022/01/01 13:46:27;;;;;;;17.35;6.07;;;;;;;13.76;100.00;101984.47;10393468;28;20055;-64
2022/01/01 13:51:57;;;;;;;21.35;7.65;;;;;;;13.67;100.00;101977.16;10386303;28;20053;-64
2022/01/01 13:57:18;;;;;;;16.20;6.40;;;;;;;13.63;100.00;101966.00;10416668;28;20055;-65
2022/01/01 14:02:44;;;;;;;11.38;5.10;;;;;;;13.72;100.00;101982.97;10403118;28;20498;-65
2022/01/01 14:08:14;;;;;;;11.18;4.82;;;;;;;13.71;99.34;101987.38;10377207;28;20516;-64
2022/01/01 14:13:38;;;;;;;17.13;4.93;;;;;;;13.72;99.55;101990.81;10429391;28;20416;-64
2022/01/01 14:19:00;;;;;;;13.23;4.25;;;;;;;13.74;98.83;101999.44;10370161;28;20050;-64
2022/01/01 14:24:23;;;;;;;12.02;4.30;;;;;;;13.69;99.13;101988.38;10361159;28;20403;-64
2022/01/01 14:29:45;;;;;;;8.52;3.90;;;;;;;13.63;99.07;101978.28;10361501;28;20063;-64
2022/01/01 14:35:07;;;;;;;14.95;4.55;;;;;;;13.68;99.13;101984.09;10361296;28;20129;-63
2022/01/01 14:40:28;;;;;;;11.82;3.88;;;;;;;13.72;99.39;101985.56;10360722;28;20434;-64
2022/01/01 14:45:52;;;;;;;13.52;3.63;;;;;;;13.69;98.56;101986.63;10383114;28;20507;-64
2022/01/01 14:51:36;;;;;;;10.68;3.97;;;;;;;13.63;99.30;101980.88;10402126;28;20490;-63
2022/01/01 14:57:23;;;;;;;7.55;3.70;;;;;;;13.65;99.19;101976.41;10425760;28;20107;-64
2022/01/01 15:02:45;;;;;;;13.07;3.90;;;;;;;13.56;100.00;101969.94;10360026;28;20050;-64
2022/01/01 15:08:11;;;;;;;13.60;3.75;;;;;;;13.62;99.14;101968.72;10360730;28;20072;-64
2022/01/01 15:13:33;;;;;;;9.25;3.67;;;;;;;13.59;99.40;101954.03;10442964;28;20128;-66
2022/01/01 15:18:58;;;;;;;8.45;3.47;;;;;;;13.58;99.37;101946.25;10446966;28;20063;-65
2022/01/01 15:24:32;;;;;;;10.03;3.70;;;;;;;13.48;100.00;101951.19;10416993;28;20507;-64
2022/01/01 15:35:48;;;;;;;9.80;3.38;;;;;;;13.50;100.00;101959.78;10365851;28;20045;-64
2022/01/01 15:41:32;;;;;;;12.70;3.55;;;;;;;13.43;100.00;101962.03;10378959;28;20046;-63
2022/01/01 15:47:00;;;;;;;8.73;3.42;;;;;;;13.46;100.00;101963.50;10400454;28;20493;-64
2022/01/01 15:52:22;;;;;;;15.75;3.92;;;;;;;13.45;100.00;101958.38;10410825;28;20413;-65
2022/01/01 15:57:54;;;;;;;12.32;3.92;;;;;;;13.23;100.00;101950.09;10427580;28;20063;-65
2022/01/01 16:03:50;;;;;;;8.40;4.03;;;;;;;13.26;100.00;101939.41;10357481;28;20096;-64
2022/01/01 16:09:14;;;;;;;12.10;4.10;;;;;;;13.28;100.00;101926.25;10366968;28;20073;-63
2022/01/01 16:14:48;;;;;;;13.00;4.40;;;;;;;13.30;100.00;101933.06;10395511;28;20049;-64
2022/01/01 16:20:10;;;;;;;14.93;4.45;;;;;;;13.23;100.00;101925.66;10381918;28;20049;-64
2022/01/01 16:25:34;;;;;;;9.32;3.90;;;;;;;13.20;100.00;101918.84;10406652;28;20052;-64
2022/01/01 16:30:57;;;;;;;14.38;4.55;;;;;;;13.13;100.00;101922.72;10374806;28;20053;-63
2022/01/01 16:36:25;;;;;;;14.25;4.50;;;;;;;13.18;100.00;101915.47;10392480;28;20058;-63
2022/01/01 16:42:07;;;;;;;11.88;4.90;;;;;;;13.01;100.00;101907.72;10356911;28;20061;-64
2022/01/01 16:47:45;;;;;;;14.60;5.10;;;;;;;13.19;100.00;101890.97;10389173;28;20086;-65
2022/01/01 16:53:08;;;;;;;17.02;4.72;;;;;;;13.17;100.00;101900.69;10393327;28;20145;-65
2022/01/01 16:58:30;;;;;;;14.20;4.90;;;;;;;13.05;100.00;101872.59;10360874;28;20410;-67
2022/01/01 17:04:10;;;;;;;19.20;5.60;;;;;;;13.14;100.00;101882.53;10367693;28;20421;-66
2022/01/01 17:09:35;;;;;;;10.07;4.97;;;;;;;13.13;100.00;101875.59;10367216;28;20046;-66
2022/01/01 17:14:58;;;;;;;16.25;5.25;;;;;;;13.16;100.00;101864.97;10357579;28;20053;-66
2022/01/01 17:20:51;;;;;;;15.00;5.57;;;;;;;13.11;100.00;101845.22;10362911;28;20072;-66
2022/01/01 17:26:13;;;;;;;16.00;5.10;;;;;;;13.04;100.00;101822.94;10370020;28;20057;-65
2022/01/01 17:31:36;;;;;;;10.82;5.07;;;;;;;13.22;99.66;101833.19;10357706;28;20097;-67
2022/01/01 17:37:07;;;;;;;15.60;4.40;;;;;;;13.19;99.91;101825.50;10361447;28;20046;-65
2022/01/01 17:42:32;;;;;;;12.70;4.50;;;;;;;13.19;99.52;101817.66;10357973;28;20473;-65
2022/01/01 17:47:56;;;;;;;13.75;5.07;;;;;;;13.24;99.75;101818.22;10356501;28;20653;-65
2022/01/01 17:53:18;;;;;;;11.73;4.20;;;;;;;13.18;99.33;101809.88;10363967;28;20045;-65
2022/01/01 17:58:42;;;;;;;11.82;4.10;;;;;;;13.18;99.21;101795.03;10358869;28;20563;-65
2022/01/01 18:04:04;;;;;;;9.93;4.45;;;;;;;13.06;100.00;101787.91;10358937;28;20045;-65
2022/01/01 18:09:28;;;;;;;11.00;3.92;;;;;;;13.05;99.96;101804.53;10360872;28;20045;-65
2022/01/01 18:14:55;;;;;;;13.03;4.30;;;;;;;13.04;100.00;101792.38;10366184;28;20042;-66
2022/01/01 18:20:21;;;;;;;12.85;4.15;;;;;;;13.07;100.00;101781.72;10365782;28;20050;-65
2022/01/01 18:25:49;;;;;;;8.80;3.95;;;;;;;13.12;99.11;101794.53;10390843;28;20604;-66
2022/01/01 18:31:11;;;;;;;8.05;4.32;;;;;;;13.28;97.02;101785.66;10376715;28;20046;-64
2022/01/01 18:36:35;;;;;;;8.93;4.15;;;;;;;13.21;97.81;101792.22;10346488;28;20053;-66
2022/01/01 18:41:57;;;;;;;8.20;4.20;;;;;;;13.20;97.54;101780.06;10374743;28;20041;-65
2022/01/01 18:47:25;;;;;;;14.25;4.30;;;;;;;13.07;98.30;101784.34;10398176;28;20041;-66
2022/01/01 18:52:53;;;;;;;11.65;4.25;;;;;;;13.23;97.25;101784.25;10382545;28;20045;-65
2022/01/01 18:58:19;;;;;;;9.55;4.07;;;;;;;13.15;97.55;101783.91;10373380;28;20389;-65
2022/01/01 19:03:42;;;;;;;10.68;3.88;;;;;;;13.15;97.05;101789.97;10372909;28;20049;-66
2022/01/01 19:09:04;;;;;;;10.25;3.65;;;;;;;13.07;97.13;101766.03;10365868;28;20428;-65
2022/01/01 19:14:26;;;;;;;10.75;3.95;;;;;;;13.12;96.95;101750.88;10368115;28;20060;-65
2022/01/01 19:19:48;;;;;;;11.88;4.15;;;;;;;13.11;96.16;101762.28;10359793;28;20426;-65
2022/01/01 19:25:15;;;;;;;11.02;3.88;;;;;;;13.11;95.96;101767.50;10367401;28;20041;-65
2022/01/01 19:30:39;;;;;;;9.45;3.60;;;;;;;13.04;95.76;101750.50;10371002;28;20038;-65
2022/01/01 19:36:00;;;;;;;12.32;4.15;;;;;;;13.06;97.25;101740.78;10367396;28;20074;-65
2022/01/01 19:41:30;;;;;;;9.45;4.07;;;;;;;12.86;98.52;101729.78;10390809;28;20524;-65
2022/01/01 19:47:06;;;;;;;7.95;3.33;;;;;;;13.08;95.36;101741.53;10373811;28;20067;-66
2022/01/01 19:52:30;;;;;;;10.48;3.58;;;;;;;12.84;97.32;101727.25;10358689;28;20045;-66
2022/01/01 19:57:53;;;;;;;7.75;3.40;;;;;;;12.92;96.10;101730.31;10368352;28;20458;-66
2022/01/01 20:03:17;;;;;;;7.85;3.30;;;;;;;12.89;96.38;101725.25;10399999;28;20053;-65
2022/01/01 20:08:39;;;;;;;5.97;2.85;;;;;;;12.92;96.83;101718.97;10380879;28;20049;-65
2022/01/01 20:14:01;;;;;;;9.23;3.55;;;;;;;12.80;96.99;101689.13;10385841;28;20088;-65
2022/01/01 20:19:22;;;;;;;7.97;3.05;;;;;;;12.78;96.21;101654.38;10357023;28;20423;-66
2022/01/01 20:24:44;;;;;;;5.45;3.10;;;;;;;12.90;95.33;101679.81;10365883;28;20041;-66
2022/01/01 20:30:06;;;;;;;7.30;3.45;;;;;;;12.80;95.90;101689.13;10363502;28;20054;-66
2022/01/01 20:35:28;;;;;;;7.57;3.03;;;;;;;12.92;95.18;101675.34;10365820;28;20053;-66
2022/01/01 20:40:50;;;;;;;8.02;3.13;;;;;;;12.72;96.15;101665.19;10397037;28;20057;-66
2022/01/01 20:46:11;;;;;;;8.35;3.25;;;;;;;12.67;97.13;101643.69;10393697;28;20045;-66
2022/01/01 20:51:34;;;;;;;8.13;3.65;;;;;;;12.77;96.18;101616.06;10365721;28;20080;-66
2022/01/01 20:56:55;;;;;;;7.30;3.50;;;;;;;12.87;94.64;101625.00;10412706;28;20139;-66
2022/01/01 21:02:24;;;;;;;9.52;3.40;;;;;;;12.91;94.72;101662.31;10437352;28;20493;-65
2022/01/01 21:07:48;;;;;;;9.05;3.25;;;;;;;12.84;94.99;101682.75;10355645;28;20149;-66
2022/01/01 21:13:11;;;;;;;7.97;3.33;;;;;;;12.89;94.81;101683.38;10380407;28;20041;-66
2022/01/01 21:18:32;;;;;;;8.68;3.08;;;;;;;12.78;96.00;101638.66;10368993;28;20064;-66
2022/01/01 21:23:57;;;;;;;8.00;3.55;;;;;;;12.56;96.85;101659.19;10395518;28;20394;-66
2022/01/01 21:29:19;;;;;;;11.30;3.80;;;;;;;12.78;95.42;101664.84;10379951;28;20068;-66
2022/01/01 21:34:42;;;;;;;9.93;3.50;;;;;;;12.82;95.06;101661.06;10391010;28;20498;-66
2022/01/01 21:40:05;;;;;;;8.85;3.38;;;;;;;12.75;95.52;101664.16;10359555;28;20405;-66
2022/01/01 21:45:27;;;;;;;5.93;3.40;;;;;;;12.73;95.64;101659.03;10388323;28;20038;-66
2022/01/01 21:50:49;;;;;;;7.85;3.30;;;;;;;12.67;96.07;101676.88;10357605;28;20155;-65
2022/01/01 21:56:11;;;;;;;8.32;3.60;;;;;;;12.72;95.67;101664.38;10399556;28;20045;-66
2022/01/01 22:01:32;;;;;;;6.20;3.47;;;;;;;12.64;96.79;101656.13;10370536;28;20046;-67
2022/01/01 22:06:55;;;;;;;7.32;3.80;;;;;;;12.56;97.29;101638.25;10361678;28;20049;-67
2022/01/01 22:12:17;;;;;;;9.80;3.70;;;;;;;12.58;97.26;101643.41;10420910;28;20496;-67
2022/01/01 22:17:39;;;;;;;11.13;3.90;;;;;;;12.52;98.17;101651.63;10440678;28;20053;-67
2022/01/01 22:23:00;;;;;;;10.43;3.90;;;;;;;12.36;98.99;101650.00;10406458;28;20046;-67
2022/01/01 22:28:22;;;;;;;9.75;3.90;;;;;;;12.48;98.37;101654.50;10408455;28;20049;-66
2022/01/01 22:33:43;;;;;;;10.20;4.03;;;;;;;12.61;97.02;101651.91;10362842;28;20060;-65
2022/01/01 22:39:06;;;;;;;9.85;3.95;;;;;;;12.46;98.05;101620.59;10392065;28;20049;-67
2022/01/01 22:44:27;;;;;;;7.40;3.40;;;;;;;12.48;97.06;101601.28;10361630;28;20050;-67
2022/01/01 22:49:49;;;;;;;6.78;3.80;;;;;;;12.57;97.06;101563.28;10418411;28;20052;-67
2022/01/01 22:55:12;;;;;;;7.43;3.70;;;;;;;12.56;97.90;101553.75;10413719;28;20209;-67
2022/01/01 23:00:33;;;;;;;7.93;3.80;;;;;;;12.50;97.75;101546.25;10370189;28;20057;-67
2022/01/01 23:05:55;;;;;;;9.68;3.90;;;;;;;12.50;97.97;101554.97;10396121;28;20506;-67
2022/01/01 23:11:17;;;;;;;9.45;4.00;;;;;;;12.65;96.32;101582.78;10383160;28;20079;-67
2022/01/01 23:16:43;;;;;;;7.63;3.80;;;;;;;12.62;96.53;101577.75;10408084;28;20226;-66
2022/01/01 23:22:09;;;;;;;6.47;3.70;;;;;;;12.63;96.27;101561.13;10419124;28;20471;-67
2022/01/01 23:27:32;;;;;;;7.80;4.35;;;;;;;12.67;96.40;101552.13;10366120;28;20047;-66
2022/01/01 23:32:54;;;;;;;8.25;4.20;;;;;;;12.69;95.69;101565.94;10366595;28;20379;-65
2022/01/01 23:38:18;;;;;;;8.90;4.28;;;;;;;12.76;95.67;101576.88;10363786;28;20058;-66
2022/01/01 23:43:40;;;;;;;6.88;3.95;;;;;;;12.75;95.46;101570.81;10371058;28;20052;-65
2022/01/01 23:49:04;;;;;;;6.10;4.00;;;;;;;12.67;95.56;101540.84;10365615;28;20053;-66
2022/01/01 23:54:48;;;;;;;9.18;4.38;;;;;;;12.65;95.91;101530.47;10377511;28;20518;-66
